sensor_id;sensor_type;location;lat;lon;timestamp;pressure;altitude;pressure_sealevel;temperature;humidity
73624;BME280;61921;53.226;-1.296;2023-06-14T00:01:19;100784.70;;;14.62;65.97
73624;BME280;61921;53.226;-1.296;2023-06-14T00:03:45;100784.43;;;14.65;66.25
73624;BME280;61921;53.226;-1.296;2023-06-14T00:06:10;100785.90;;;14.68;66.14
73624;BME280;61921;53.226;-1.296;2023-06-14T00:08:35;100789.06;;;14.68;66.44
73624;BME280;61921;53.226;-1.296;2023-06-14T00:11:01;100787.01;;;14.77;65.56
73624;BME280;61921;53.226;-1.296;2023-06-14T00:13:28;100791.10;;;14.41;67.39
73624;BME280;61921;53.226;-1.296;2023-06-14T00:15:52;100789.42;;;14.56;67.29
73624;BME280;61921;53.226;-1.296;2023-06-14T00:18:17;100787.93;;;14.41;67.96
73624;BME280;61921;53.226;-1.296;2023-06-14T00:20:42;100791.16;;;14.03;69.36
73624;BME280;61921;53.226;-1.296;2023-06-14T00:23:07;100791.17;;;13.67;70.94
73624;BME280;61921;53.226;-1.296;2023-06-14T00:25:33;100790.75;;;13.80;70.89
73624;BME280;61921;53.226;-1.296;2023-06-14T00:27:58;100795.96;;;13.96;70.52
73624;BME280;61921;53.226;-1.296;2023-06-14T00:30:23;100795.84;;;14.07;69.82
73624;BME280;61921;53.226;-1.296;2023-06-14T00:32:49;100796.64;;;14.09;69.37
73624;BME280;61921;53.226;-1.296;2023-06-14T00:35:14;100794.58;;;13.75;70.41
73624;BME280;61921;53.226;-1.296;2023-06-14T00:37:39;100797.65;;;13.91;69.41
73624;BME280;61921;53.226;-1.296;2023-06-14T00:40:06;100794.20;;;13.90;69.39
73624;BME280;61921;53.226;-1.296;2023-06-14T00:42:30;100791.68;;;13.67;69.72
73624;BME280;61921;53.226;-1.296;2023-06-14T00:44:55;100787.13;;;13.80;69.75
73624;BME280;61921;53.226;-1.296;2023-06-14T00:47:20;100790.07;;;13.58;70.58
73624;BME280;61921;53.226;-1.296;2023-06-14T00:49:46;100786.37;;;13.47;71.24
73624;BME280;61921;53.226;-1.296;2023-06-14T00:52:11;100786.18;;;13.25;72.07
73624;BME280;61921;53.226;-1.296;2023-06-14T00:54:36;100782.95;;;13.21;72.73
73624;BME280;61921;53.226;-1.296;2023-06-14T00:57:02;100784.44;;;13.26;72.99
73624;BME280;61921;53.226;-1.296;2023-06-14T00:59:28;100786.93;;;13.30;73.05
73624;BME280;61921;53.226;-1.296;2023-06-14T01:01:52;100786.88;;;13.46;72.69
73624;BME280;61921;53.226;-1.296;2023-06-14T01:04:17;100785.57;;;13.34;73.07
73624;BME280;61921;53.226;-1.296;2023-06-14T01:06:49;100787.09;;;13.38;72.89
73624;BME280;61921;53.226;-1.296;2023-06-14T01:09:15;100787.50;;;13.28;73.30
73624;BME280;61921;53.226;-1.296;2023-06-14T01:11:39;100790.11;;;13.26;73.77
73624;BME280;61921;53.226;-1.296;2023-06-14T01:14:00;100790.25;;;13.45;73.14
73624;BME280;61921;53.226;-1.296;2023-06-14T01:16:25;100789.40;;;13.35;73.72
73624;BME280;61921;53.226;-1.296;2023-06-14T01:18:52;100789.83;;;13.43;73.31
73624;BME280;61921;53.226;-1.296;2023-06-14T01:21:21;100788.70;;;13.59;73.10
73624;BME280;61921;53.226;-1.296;2023-06-14T01:23:40;100783.91;;;13.67;73.03
73624;BME280;61921;53.226;-1.296;2023-06-14T01:26:06;100786.03;;;13.72;72.41
73624;BME280;61921;53.226;-1.296;2023-06-14T01:28:31;100785.72;;;13.88;71.62
73624;BME280;61921;53.226;-1.296;2023-06-14T01:30:58;100783.27;;;13.94;71.83
73624;BME280;61921;53.226;-1.296;2023-06-14T01:33:25;100781.44;;;13.96;71.75
73624;BME280;61921;53.226;-1.296;2023-06-14T01:35:48;100780.64;;;13.91;71.85
73624;BME280;61921;53.226;-1.296;2023-06-14T01:38:13;100778.88;;;13.86;71.73
73624;BME280;61921;53.226;-1.296;2023-06-14T01:40:39;100775.05;;;13.81;71.73
73624;BME280;61921;53.226;-1.296;2023-06-14T01:43:04;100775.02;;;13.68;72.03
73624;BME280;61921;53.226;-1.296;2023-06-14T01:45:29;100774.97;;;13.35;73.01
73624;BME280;61921;53.226;-1.296;2023-06-14T01:47:54;100771.95;;;13.31;73.07
73624;BME280;61921;53.226;-1.296;2023-06-14T01:50:20;100768.51;;;12.94;74.41
73624;BME280;61921;53.226;-1.296;2023-06-14T01:52:45;100766.69;;;13.13;74.12
73624;BME280;61921;53.226;-1.296;2023-06-14T01:55:10;100768.92;;;13.06;74.13
73624;BME280;61921;53.226;-1.296;2023-06-14T01:57:35;100768.57;;;13.16;73.53
73624;BME280;61921;53.226;-1.296;2023-06-14T02:00:00;100768.86;;;13.17;73.37
73624;BME280;61921;53.226;-1.296;2023-06-14T02:02:25;100769.55;;;13.03;73.89
73624;BME280;61921;53.226;-1.296;2023-06-14T02:04:51;100770.59;;;13.23;73.38
73624;BME280;61921;53.226;-1.296;2023-06-14T02:07:16;100771.09;;;13.38;73.07
73624;BME280;61921;53.226;-1.296;2023-06-14T02:09:42;100771.21;;;13.43;72.53
73624;BME280;61921;53.226;-1.296;2023-06-14T02:12:08;100769.02;;;13.50;72.49
73624;BME280;61921;53.226;-1.296;2023-06-14T02:14:32;100764.89;;;13.37;72.96
73624;BME280;61921;53.226;-1.296;2023-06-14T02:16:58;100765.08;;;13.15;73.83
73624;BME280;61921;53.226;-1.296;2023-06-14T02:19:24;100761.30;;;13.13;73.85
73624;BME280;61921;53.226;-1.296;2023-06-14T02:21:49;100759.40;;;12.96;74.81
73624;BME280;61921;53.226;-1.296;2023-06-14T02:24:15;100757.75;;;12.89;75.43
73624;BME280;61921;53.226;-1.296;2023-06-14T02:26:40;100757.68;;;12.88;75.75
73624;BME280;61921;53.226;-1.296;2023-06-14T02:29:06;100758.36;;;12.95;75.41
73624;BME280;61921;53.226;-1.296;2023-06-14T02:31:30;100763.04;;;12.99;75.64
73624;BME280;61921;53.226;-1.296;2023-06-14T02:33:56;100761.82;;;13.12;75.29
73624;BME280;61921;53.226;-1.296;2023-06-14T02:36:21;100760.10;;;13.14;75.12
73624;BME280;61921;53.226;-1.296;2023-06-14T02:38:46;100763.67;;;13.24;74.52
73624;BME280;61921;53.226;-1.296;2023-06-14T02:41:11;100763.51;;;13.28;74.03
73624;BME280;61921;53.226;-1.296;2023-06-14T02:43:37;100764.42;;;13.30;73.12
73624;BME280;61921;53.226;-1.296;2023-06-14T02:46:02;100766.83;;;13.15;73.00
73624;BME280;61921;53.226;-1.296;2023-06-14T02:48:28;100766.93;;;13.06;73.80
73624;BME280;61921;53.226;-1.296;2023-06-14T02:50:54;100761.87;;;13.01;74.24
73624;BME280;61921;53.226;-1.296;2023-06-14T02:53:18;100761.27;;;12.97;74.57
73624;BME280;61921;53.226;-1.296;2023-06-14T02:55:44;100758.93;;;12.92;74.47
73624;BME280;61921;53.226;-1.296;2023-06-14T02:58:09;100755.08;;;12.83;74.89
73624;BME280;61921;53.226;-1.296;2023-06-14T03:00:35;100755.41;;;12.80;74.72
73624;BME280;61921;53.226;-1.296;2023-06-14T03:03:00;100754.73;;;12.75;75.31
73624;BME280;61921;53.226;-1.296;2023-06-14T03:05:26;100753.99;;;12.71;75.47
73624;BME280;61921;53.226;-1.296;2023-06-14T03:07:51;100761.00;;;12.69;75.21
73624;BME280;61921;53.226;-1.296;2023-06-14T03:10:16;100765.24;;;12.64;75.34
73624;BME280;61921;53.226;-1.296;2023-06-14T03:12:41;100764.37;;;12.64;75.31
73624;BME280;61921;53.226;-1.296;2023-06-14T03:15:08;100766.25;;;12.62;75.47
73624;BME280;61921;53.226;-1.296;2023-06-14T03:17:32;100762.61;;;12.59;75.22
73624;BME280;61921;53.226;-1.296;2023-06-14T03:19:58;100763.92;;;12.54;75.50
73624;BME280;61921;53.226;-1.296;2023-06-14T03:22:23;100762.82;;;12.26;77.12
73624;BME280;61921;53.226;-1.296;2023-06-14T03:24:48;100762.70;;;12.30;76.89
73624;BME280;61921;53.226;-1.296;2023-06-14T03:27:14;100759.14;;;12.10;78.61
73624;BME280;61921;53.226;-1.296;2023-06-14T03:29:39;100757.27;;;12.11;78.81
73624;BME280;61921;53.226;-1.296;2023-06-14T03:32:06;100757.08;;;11.83;81.66
73624;BME280;61921;53.226;-1.296;2023-06-14T03:34:30;100760.25;;;11.72;82.93
73624;BME280;61921;53.226;-1.296;2023-06-14T03:36:55;100760.73;;;11.75;83.34
73624;BME280;61921;53.226;-1.296;2023-06-14T03:39:21;100765.83;;;11.79;83.78
73624;BME280;61921;53.226;-1.296;2023-06-14T03:41:47;100767.38;;;11.82;83.77
73624;BME280;61921;53.226;-1.296;2023-06-14T03:44:13;100772.08;;;11.98;83.13
73624;BME280;61921;53.226;-1.296;2023-06-14T03:46:37;100777.21;;;12.07;82.76
73624;BME280;61921;53.226;-1.296;2023-06-14T03:49:02;100779.94;;;12.12;81.52
73624;BME280;61921;53.226;-1.296;2023-06-14T03:51:28;100778.87;;;12.21;81.77
73624;BME280;61921;53.226;-1.296;2023-06-14T03:53:53;100777.49;;;12.18;81.72
73624;BME280;61921;53.226;-1.296;2023-06-14T03:56:19;100778.58;;;12.33;81.22
73624;BME280;61921;53.226;-1.296;2023-06-14T03:58:44;100777.65;;;12.09;82.53
73624;BME280;61921;53.226;-1.296;2023-06-14T04:01:09;100776.44;;;12.20;82.20
73624;BME280;61921;53.226;-1.296;2023-06-14T04:03:35;100771.90;;;11.99;83.58
73624;BME280;61921;53.226;-1.296;2023-06-14T04:06:00;100761.98;;;12.11;83.63
73624;BME280;61921;53.226;-1.296;2023-06-14T04:08:26;100767.10;;;12.05;84.04
73624;BME280;61921;53.226;-1.296;2023-06-14T04:10:51;100764.43;;;11.95;84.85
73624;BME280;61921;53.226;-1.296;2023-06-14T04:13:16;100763.73;;;11.93;85.25
73624;BME280;61921;53.226;-1.296;2023-06-14T04:15:42;100758.49;;;12.04;84.91
73624;BME280;61921;53.226;-1.296;2023-06-14T04:18:07;100750.79;;;12.18;84.37
73624;BME280;61921;53.226;-1.296;2023-06-14T04:20:32;100751.04;;;12.12;84.74
73624;BME280;61921;53.226;-1.296;2023-06-14T04:22:57;100752.43;;;11.90;85.83
73624;BME280;61921;53.226;-1.296;2023-06-14T04:25:23;100754.63;;;11.88;86.14
73624;BME280;61921;53.226;-1.296;2023-06-14T04:27:48;100755.26;;;11.83;86.76
73624;BME280;61921;53.226;-1.296;2023-06-14T04:30:13;100759.78;;;11.77;87.17
73624;BME280;61921;53.226;-1.296;2023-06-14T04:32:38;100764.99;;;11.70;87.49
73624;BME280;61921;53.226;-1.296;2023-06-14T04:35:04;100761.29;;;11.84;87.07
73624;BME280;61921;53.226;-1.296;2023-06-14T04:37:29;100760.17;;;11.92;86.45
73624;BME280;61921;53.226;-1.296;2023-06-14T04:39:54;100757.95;;;12.03;85.96
73624;BME280;61921;53.226;-1.296;2023-06-14T04:42:20;100758.98;;;11.93;86.28
73624;BME280;61921;53.226;-1.296;2023-06-14T04:44:45;100761.69;;;11.96;86.69
73624;BME280;61921;53.226;-1.296;2023-06-14T04:47:10;100763.80;;;12.08;86.21
73624;BME280;61921;53.226;-1.296;2023-06-14T04:49:36;100766.39;;;12.25;84.72
73624;BME280;61921;53.226;-1.296;2023-06-14T04:52:02;100773.97;;;12.48;83.71
73624;BME280;61921;53.226;-1.296;2023-06-14T04:54:27;100779.89;;;12.64;82.34
73624;BME280;61921;53.226;-1.296;2023-06-14T04:56:52;100778.31;;;12.72;80.93
73624;BME280;61921;53.226;-1.296;2023-06-14T04:59:17;100780.74;;;12.79;80.66
73624;BME280;61921;53.226;-1.296;2023-06-14T05:01:43;100780.65;;;12.78;80.54
73624;BME280;61921;53.226;-1.296;2023-06-14T05:04:08;100780.08;;;12.89;80.20
73624;BME280;61921;53.226;-1.296;2023-06-14T05:06:34;100780.04;;;12.77;80.58
73624;BME280;61921;53.226;-1.296;2023-06-14T05:08:59;100782.69;;;12.91;80.25
73624;BME280;61921;53.226;-1.296;2023-06-14T05:11:25;100780.92;;;12.88;80.98
73624;BME280;61921;53.226;-1.296;2023-06-14T05:13:50;100780.07;;;12.84;82.10
73624;BME280;61921;53.226;-1.296;2023-06-14T05:16:15;100780.95;;;12.92;82.34
73624;BME280;61921;53.226;-1.296;2023-06-14T05:18:40;100782.11;;;12.72;83.61
73624;BME280;61921;53.226;-1.296;2023-06-14T05:21:05;100779.85;;;12.64;84.13
73624;BME280;61921;53.226;-1.296;2023-06-14T05:23:30;100778.60;;;12.48;85.39
73624;BME280;61921;53.226;-1.296;2023-06-14T05:25:56;100776.46;;;12.51;85.92
73624;BME280;61921;53.226;-1.296;2023-06-14T05:28:21;100777.71;;;12.74;85.13
73624;BME280;61921;53.226;-1.296;2023-06-14T05:30:47;100779.46;;;12.72;85.76
73624;BME280;61921;53.226;-1.296;2023-06-14T05:33:12;100784.14;;;12.89;85.37
73624;BME280;61921;53.226;-1.296;2023-06-14T05:35:38;100782.98;;;12.88;85.22
73624;BME280;61921;53.226;-1.296;2023-06-14T05:38:03;100781.76;;;12.98;84.81
73624;BME280;61921;53.226;-1.296;2023-06-14T05:40:29;100780.61;;;13.18;84.21
73624;BME280;61921;53.226;-1.296;2023-06-14T05:42:54;100784.12;;;13.20;83.85
73624;BME280;61921;53.226;-1.296;2023-06-14T05:45:19;100787.43;;;13.43;82.82
73624;BME280;61921;53.226;-1.296;2023-06-14T05:47:44;100786.89;;;13.54;82.94
73624;BME280;61921;53.226;-1.296;2023-06-14T05:50:10;100788.84;;;13.59;82.78
73624;BME280;61921;53.226;-1.296;2023-06-14T05:52:35;100789.61;;;13.83;82.00
73624;BME280;61921;53.226;-1.296;2023-06-14T05:55:01;100785.80;;;14.00;80.49
73624;BME280;61921;53.226;-1.296;2023-06-14T05:57:26;100783.72;;;13.99;81.78
73624;BME280;61921;53.226;-1.296;2023-06-14T05:59:51;100785.51;;;14.20;80.89
73624;BME280;61921;53.226;-1.296;2023-06-14T06:02:16;100783.87;;;14.25;81.42
73624;BME280;61921;53.226;-1.296;2023-06-14T06:04:42;100786.91;;;14.39;80.82
73624;BME280;61921;53.226;-1.296;2023-06-14T06:07:07;100792.13;;;14.62;79.83
73624;BME280;61921;53.226;-1.296;2023-06-14T06:09:33;100789.76;;;14.43;79.93
73624;BME280;61921;53.226;-1.296;2023-06-14T06:11:58;100793.58;;;14.57;79.70
73624;BME280;61921;53.226;-1.296;2023-06-14T06:14:23;100793.93;;;14.51;79.50
73624;BME280;61921;53.226;-1.296;2023-06-14T06:16:48;100794.34;;;14.63;79.24
73624;BME280;61921;53.226;-1.296;2023-06-14T06:19:14;100796.47;;;14.67;79.38
73624;BME280;61921;53.226;-1.296;2023-06-14T06:21:39;100800.70;;;14.74;79.22
73624;BME280;61921;53.226;-1.296;2023-06-14T06:24:05;100802.18;;;14.93;79.39
73624;BME280;61921;53.226;-1.296;2023-06-14T06:26:30;100804.94;;;15.10;79.14
73624;BME280;61921;53.226;-1.296;2023-06-14T06:28:55;100809.35;;;15.18;78.25
73624;BME280;61921;53.226;-1.296;2023-06-14T06:31:20;100807.23;;;15.17;77.54
73624;BME280;61921;53.226;-1.296;2023-06-14T06:33:46;100808.75;;;15.39;78.00
73624;BME280;61921;53.226;-1.296;2023-06-14T06:36:11;100808.29;;;15.38;77.72
73624;BME280;61921;53.226;-1.296;2023-06-14T06:38:36;100806.88;;;15.50;77.41
73624;BME280;61921;53.226;-1.296;2023-06-14T06:41:02;100805.69;;;15.63;76.10
73624;BME280;61921;53.226;-1.296;2023-06-14T06:43:27;100803.65;;;15.80;76.40
73624;BME280;61921;53.226;-1.296;2023-06-14T06:45:52;100804.39;;;15.79;75.22
73624;BME280;61921;53.226;-1.296;2023-06-14T06:48:18;100803.43;;;15.72;75.11
73624;BME280;61921;53.226;-1.296;2023-06-14T06:50:43;100806.00;;;15.98;75.57
73624;BME280;61921;53.226;-1.296;2023-06-14T06:53:09;100808.42;;;15.97;74.26
73624;BME280;61921;53.226;-1.296;2023-06-14T06:55:35;100805.18;;;16.25;74.89
73624;BME280;61921;53.226;-1.296;2023-06-14T06:58:00;100803.85;;;16.27;73.60
73624;BME280;61921;53.226;-1.296;2023-06-14T07:00:25;100801.70;;;16.47;73.80
73624;BME280;61921;53.226;-1.296;2023-06-14T07:02:50;100803.86;;;16.36;73.87
73624;BME280;61921;53.226;-1.296;2023-06-14T07:05:16;100806.89;;;16.52;73.52
73624;BME280;61921;53.226;-1.296;2023-06-14T07:07:41;100812.23;;;17.05;71.83
73624;BME280;61921;53.226;-1.296;2023-06-14T07:10:07;100819.45;;;18.21;67.32
73624;BME280;61921;53.226;-1.296;2023-06-14T07:12:32;100826.51;;;18.20;65.74
73624;BME280;61921;53.226;-1.296;2023-06-14T07:14:58;100824.22;;;18.59;65.19
73624;BME280;61921;53.226;-1.296;2023-06-14T07:17:23;100822.80;;;18.44;65.12
73624;BME280;61921;53.226;-1.296;2023-06-14T07:19:48;100820.15;;;18.86;65.07
73624;BME280;61921;53.226;-1.296;2023-06-14T07:22:14;100822.33;;;18.68;63.70
73624;BME280;61921;53.226;-1.296;2023-06-14T07:24:40;100826.49;;;18.78;64.08
73624;BME280;61921;53.226;-1.296;2023-06-14T07:27:05;100828.03;;;19.03;62.83
73624;BME280;61921;53.226;-1.296;2023-06-14T07:29:30;100831.00;;;19.60;60.89
73624;BME280;61921;53.226;-1.296;2023-06-14T07:31:55;100829.87;;;19.38;62.08
73624;BME280;61921;53.226;-1.296;2023-06-14T07:34:20;100827.02;;;19.39;62.15
73624;BME280;61921;53.226;-1.296;2023-06-14T07:36:46;100827.36;;;19.74;61.66
73624;BME280;61921;53.226;-1.296;2023-06-14T07:39:11;100827.53;;;20.12;60.10
73624;BME280;61921;53.226;-1.296;2023-06-14T07:41:36;100825.28;;;20.15;59.40
73624;BME280;61921;53.226;-1.296;2023-06-14T07:44:01;100822.97;;;20.46;58.70
73624;BME280;61921;53.226;-1.296;2023-06-14T07:46:27;100826.77;;;20.65;58.26
73624;BME280;61921;53.226;-1.296;2023-06-14T07:48:52;100821.68;;;20.65;57.27
73624;BME280;61921;53.226;-1.296;2023-06-14T07:51:18;100823.76;;;20.55;57.64
73624;BME280;61921;53.226;-1.296;2023-06-14T07:53:44;100825.29;;;20.11;59.15
73624;BME280;61921;53.226;-1.296;2023-06-14T07:56:09;100824.91;;;19.88;60.18
73624;BME280;61921;53.226;-1.296;2023-06-14T07:58:35;100823.59;;;19.88;60.59
73624;BME280;61921;53.226;-1.296;2023-06-14T08:01:00;100825.44;;;20.10;59.53
73624;BME280;61921;53.226;-1.296;2023-06-14T08:03:25;100824.22;;;20.42;59.77
73624;BME280;61921;53.226;-1.296;2023-06-14T08:05:50;100823.98;;;20.35;59.42
73624;BME280;61921;53.226;-1.296;2023-06-14T08:08:16;100827.37;;;21.12;56.48
73624;BME280;61921;53.226;-1.296;2023-06-14T08:10:41;100829.57;;;20.89;57.46
73624;BME280;61921;53.226;-1.296;2023-06-14T08:13:06;100830.49;;;21.17;57.63
73624;BME280;61921;53.226;-1.296;2023-06-14T08:15:31;100833.34;;;20.90;57.83
73624;BME280;61921;53.226;-1.296;2023-06-14T08:17:57;100836.16;;;21.46;56.30
73624;BME280;61921;53.226;-1.296;2023-06-14T08:20:22;100833.28;;;21.93;55.27
73624;BME280;61921;53.226;-1.296;2023-06-14T08:22:47;100832.68;;;21.75;55.55
73624;BME280;61921;53.226;-1.296;2023-06-14T08:25:12;100828.43;;;21.72;56.62
73624;BME280;61921;53.226;-1.296;2023-06-14T08:27:37;100824.64;;;21.40;55.98
73624;BME280;61921;53.226;-1.296;2023-06-14T08:30:03;100826.14;;;21.85;55.86
73624;BME280;61921;53.226;-1.296;2023-06-14T08:32:28;100824.71;;;21.92;55.36
73624;BME280;61921;53.226;-1.296;2023-06-14T08:34:53;100822.96;;;22.29;54.33
73624;BME280;61921;53.226;-1.296;2023-06-14T08:37:18;100822.37;;;22.46;54.26
73624;BME280;61921;53.226;-1.296;2023-06-14T08:39:43;100816.74;;;22.19;54.12
73624;BME280;61921;53.226;-1.296;2023-06-14T08:42:09;100821.11;;;21.95;55.22
73624;BME280;61921;53.226;-1.296;2023-06-14T08:44:33;100824.23;;;21.79;55.89
73624;BME280;61921;53.226;-1.296;2023-06-14T08:46:59;100821.98;;;21.74;56.04
73624;BME280;61921;53.226;-1.296;2023-06-14T08:49:25;100826.18;;;21.93;55.27
73624;BME280;61921;53.226;-1.296;2023-06-14T08:51:50;100820.09;;;21.45;55.86
73624;BME280;61921;53.226;-1.296;2023-06-14T08:54:14;100822.00;;;21.67;55.23
73624;BME280;61921;53.226;-1.296;2023-06-14T08:56:40;100818.39;;;21.65;54.09
73624;BME280;61921;53.226;-1.296;2023-06-14T08:59:06;100814.27;;;22.34;52.33
73624;BME280;61921;53.226;-1.296;2023-06-14T09:01:33;100814.07;;;23.08;52.63
73624;BME280;61921;53.226;-1.296;2023-06-14T09:03:54;100814.57;;;22.94;51.85
73624;BME280;61921;53.226;-1.296;2023-06-14T09:06:19;100815.87;;;22.98;51.75
73624;BME280;61921;53.226;-1.296;2023-06-14T09:08:46;100818.07;;;23.26;51.46
73624;BME280;61921;53.226;-1.296;2023-06-14T09:11:11;100815.25;;;23.18;50.67
73624;BME280;61921;53.226;-1.296;2023-06-14T09:13:35;100809.63;;;22.72;50.66
73624;BME280;61921;53.226;-1.296;2023-06-14T09:16:00;100816.90;;;23.14;51.13
73624;BME280;61921;53.226;-1.296;2023-06-14T09:18:34;100815.29;;;22.97;50.92
73624;BME280;61921;53.226;-1.296;2023-06-14T09:20:50;100822.36;;;23.56;49.38
73624;BME280;61921;53.226;-1.296;2023-06-14T09:23:20;100810.80;;;23.03;50.31
73624;BME280;61921;53.226;-1.296;2023-06-14T09:25:43;100810.87;;;23.33;50.07
73624;BME280;61921;53.226;-1.296;2023-06-14T09:28:07;100811.61;;;23.27;50.23
73624;BME280;61921;53.226;-1.296;2023-06-14T09:30:30;100809.75;;;23.50;50.39
73624;BME280;61921;53.226;-1.296;2023-06-14T09:32:55;100810.05;;;24.05;48.55
73624;BME280;61921;53.226;-1.296;2023-06-14T09:35:21;100808.16;;;24.25;47.78
73624;BME280;61921;53.226;-1.296;2023-06-14T09:37:46;100816.95;;;24.24;48.23
73624;BME280;61921;53.226;-1.296;2023-06-14T09:40:11;100819.15;;;23.81;48.61
73624;BME280;61921;53.226;-1.296;2023-06-14T09:42:36;100821.08;;;24.03;47.16
73624;BME280;61921;53.226;-1.296;2023-06-14T09:45:02;100817.96;;;24.56;46.70
73624;BME280;61921;53.226;-1.296;2023-06-14T09:47:26;100816.92;;;24.90;46.45
73624;BME280;61921;53.226;-1.296;2023-06-14T09:49:51;100819.67;;;25.20;45.45
73624;BME280;61921;53.226;-1.296;2023-06-14T09:52:18;100823.17;;;25.15;44.99
73624;BME280;61921;53.226;-1.296;2023-06-14T09:54:42;100821.17;;;24.72;45.67
73624;BME280;61921;53.226;-1.296;2023-06-14T09:57:07;100819.09;;;24.46;44.87
73624;BME280;61921;53.226;-1.296;2023-06-14T09:59:33;100819.20;;;24.61;44.62
73624;BME280;61921;53.226;-1.296;2023-06-14T10:01:58;100826.40;;;24.58;43.68
73624;BME280;61921;53.226;-1.296;2023-06-14T10:04:22;100821.21;;;24.53;45.25
73624;BME280;61921;53.226;-1.296;2023-06-14T10:06:47;100827.78;;;25.22;43.93
73624;BME280;61921;53.226;-1.296;2023-06-14T10:09:12;100830.54;;;25.31;42.67
73624;BME280;61921;53.226;-1.296;2023-06-14T10:11:37;100824.29;;;25.26;41.74
73624;BME280;61921;53.226;-1.296;2023-06-14T10:14:04;100823.48;;;25.38;41.72
73624;BME280;61921;53.226;-1.296;2023-06-14T10:16:32;100821.02;;;25.32;40.80
73624;BME280;61921;53.226;-1.296;2023-06-14T10:19:02;100819.66;;;25.28;40.81
73624;BME280;61921;53.226;-1.296;2023-06-14T10:21:26;100816.20;;;25.51;40.76
73624;BME280;61921;53.226;-1.296;2023-06-14T10:23:46;100812.66;;;25.58;41.42
73624;BME280;61921;53.226;-1.296;2023-06-14T10:26:18;100812.07;;;25.93;40.90
73624;BME280;61921;53.226;-1.296;2023-06-14T10:28:38;100810.75;;;26.25;39.88
73624;BME280;61921;53.226;-1.296;2023-06-14T10:31:05;100814.35;;;25.41;40.31
73624;BME280;61921;53.226;-1.296;2023-06-14T10:33:29;100814.08;;;25.43;41.86
73624;BME280;61921;53.226;-1.296;2023-06-14T10:36:09;100820.66;;;25.78;40.43
73624;BME280;61921;53.226;-1.296;2023-06-14T10:38:30;100814.90;;;25.52;40.73
73624;BME280;61921;53.226;-1.296;2023-06-14T10:40:52;100815.72;;;25.90;40.61
73624;BME280;61921;53.226;-1.296;2023-06-14T10:43:21;100810.53;;;25.56;40.46
73624;BME280;61921;53.226;-1.296;2023-06-14T10:48:04;100811.78;;;24.93;42.09
73624;BME280;61921;53.226;-1.296;2023-06-14T10:50:30;100818.73;;;25.53;40.79
73624;BME280;61921;53.226;-1.296;2023-06-14T10:52:56;100819.40;;;25.24;41.25
73624;BME280;61921;53.226;-1.296;2023-06-14T10:55:22;100819.09;;;25.92;39.71
73624;BME280;61921;53.226;-1.296;2023-06-14T10:57:47;100816.38;;;25.94;38.17
73624;BME280;61921;53.226;-1.296;2023-06-14T11:00:13;100814.08;;;26.26;38.39
73624;BME280;61921;53.226;-1.296;2023-06-14T11:05:04;100810.85;;;26.79;37.88
73624;BME280;61921;53.226;-1.296;2023-06-14T11:07:35;100810.03;;;26.85;38.11
73624;BME280;61921;53.226;-1.296;2023-06-14T11:10:05;100808.81;;;27.15;36.95
73624;BME280;61921;53.226;-1.296;2023-06-14T11:12:19;100806.35;;;26.78;36.39
73624;BME280;61921;53.226;-1.296;2023-06-14T11:14:46;100807.42;;;27.01;36.85
73624;BME280;61921;53.226;-1.296;2023-06-14T11:17:12;100803.91;;;26.16;37.03
73624;BME280;61921;53.226;-1.296;2023-06-14T11:19:36;100803.42;;;26.73;36.12
73624;BME280;61921;53.226;-1.296;2023-06-14T11:22:02;100801.48;;;26.83;35.85
73624;BME280;61921;53.226;-1.296;2023-06-14T11:24:29;100802.18;;;26.33;35.66
73624;BME280;61921;53.226;-1.296;2023-06-14T11:26:55;100800.40;;;26.34;36.22
73624;BME280;61921;53.226;-1.296;2023-06-14T11:29:20;100806.86;;;26.45;36.60
73624;BME280;61921;53.226;-1.296;2023-06-14T11:31:46;100797.77;;;26.86;35.30
73624;BME280;61921;53.226;-1.296;2023-06-14T11:34:12;100796.96;;;26.90;36.01
73624;BME280;61921;53.226;-1.296;2023-06-14T11:36:36;100794.72;;;26.95;35.56
73624;BME280;61921;53.226;-1.296;2023-06-14T11:39:04;100796.24;;;26.27;35.75
73624;BME280;61921;53.226;-1.296;2023-06-14T11:41:35;100794.55;;;26.97;35.10
73624;BME280;61921;53.226;-1.296;2023-06-14T11:43:54;100796.93;;;27.16;34.67
73624;BME280;61921;53.226;-1.296;2023-06-14T11:46:20;100792.63;;;27.07;35.26
73624;BME280;61921;53.226;-1.296;2023-06-14T11:48:46;100798.93;;;26.25;34.73
73624;BME280;61921;53.226;-1.296;2023-06-14T11:51:11;100793.61;;;26.31;35.69
73624;BME280;61921;53.226;-1.296;2023-06-14T11:53:37;100783.44;;;26.70;36.18
73624;BME280;61921;53.226;-1.296;2023-06-14T11:56:03;100787.36;;;27.11;34.45
73624;BME280;61921;53.226;-1.296;2023-06-14T11:58:30;100794.74;;;27.08;35.30
73624;BME280;61921;53.226;-1.296;2023-06-14T12:00:55;100793.69;;;27.33;33.36
73624;BME280;61921;53.226;-1.296;2023-06-14T12:03:23;100792.99;;;27.34;33.79
73624;BME280;61921;53.226;-1.296;2023-06-14T12:05:46;100790.30;;;26.98;34.94
73624;BME280;61921;53.226;-1.296;2023-06-14T12:08:13;100791.28;;;27.53;32.94
73624;BME280;61921;53.226;-1.296;2023-06-14T12:10:41;100794.94;;;27.07;33.28
73624;BME280;61921;53.226;-1.296;2023-06-14T12:13:04;100793.00;;;26.95;33.89
73624;BME280;61921;53.226;-1.296;2023-06-14T12:15:31;100796.49;;;27.28;33.64
73624;BME280;61921;53.226;-1.296;2023-06-14T12:17:54;100792.09;;;27.28;33.03
73624;BME280;61921;53.226;-1.296;2023-06-14T12:20:20;100790.98;;;27.59;33.81
73624;BME280;61921;53.226;-1.296;2023-06-14T12:22:51;100784.93;;;28.22;32.48
73624;BME280;61921;53.226;-1.296;2023-06-14T12:25:26;100786.96;;;27.93;33.21
73624;BME280;61921;53.226;-1.296;2023-06-14T12:27:39;100785.90;;;27.68;31.81
73624;BME280;61921;53.226;-1.296;2023-06-14T12:30:04;100788.76;;;27.43;33.23
73624;BME280;61921;53.226;-1.296;2023-06-14T12:32:29;100786.41;;;27.89;32.32
73624;BME280;61921;53.226;-1.296;2023-06-14T12:34:54;100789.70;;;28.19;31.62